Weather at Semporna Airport

Public forecast

Using degrees Celsius for public forecast. Weather courtesy of forecast.io.

Closest aviation weather report (METAR) to Semporna Airport

Closest report is Tawau Airport, 29.6 nm (54.8 km) WSW.

2024/05/20 19:00 (retrieved 51 minutes ago)

WBKW 201900Z 00000KT 9999 FEW016 26/25 Q1008

Closest aviation forecast (TAF) to Semporna Airport

Closest forecast is Tawau Airport, 29.6 nm (54.8 km) WSW.

2024/05/20 18:00 (retrieved 2 hours ago)

TAF WBKW 201700Z 2018/2118 VRB03KT 9999 FEW016 BECMG 2102/2104 15008KT PROB30 TEMPO 2104/2107 5000 RA FEW015 FEW016CB